createdAt,value
2022-11-26T00:02:17.973Z,99476.03
2022-11-26T00:05:21.879Z,99482.59
2022-11-26T00:08:27.573Z,99470.38
2022-11-26T00:11:31.721Z,99481.50
2022-11-26T00:14:36.771Z,99482.16
2022-11-26T00:17:39.730Z,99485.78
2022-11-26T00:20:42.821Z,99484.63
2022-11-26T00:23:45.739Z,99474.56
2022-11-26T00:26:49.924Z,99477.41
2022-11-26T00:29:52.800Z,99482.22
2022-11-26T00:32:56.169Z,99489.56
2022-11-26T00:36:00.606Z,99489.47
2022-11-26T00:39:04.925Z,99487.56
2022-11-26T00:42:11.392Z,99488.81
2022-11-26T00:45:18.350Z,99491.72
2022-11-26T00:48:21.112Z,99489.94
2022-11-26T00:51:25.298Z,99480.09
2022-11-26T00:54:28.444Z,99482.31
2022-11-26T00:57:32.595Z,99499.13
2022-11-26T01:00:36.124Z,99486.38
2022-11-26T01:03:42.717Z,99495.09
2022-11-26T01:06:46.424Z,99478.84
2022-11-26T01:09:49.184Z,99486.69
2022-11-26T01:12:53.996Z,99480.13
2022-11-26T01:15:57.389Z,99483.97
2022-11-26T01:19:02.255Z,99490.31
2022-11-26T01:22:05.037Z,99487.22
2022-11-26T01:25:08.592Z,99494.38
2022-11-26T01:28:13.475Z,99499.03
2022-11-26T01:31:17.593Z,99492.75
2022-11-26T01:34:20.352Z,99501.84
2022-11-26T01:37:23.170Z,99498.56
2022-11-26T01:40:50.864Z,99504.34
2022-11-26T01:43:57.802Z,99498.78
2022-11-26T01:47:01.030Z,99499.09
2022-11-26T01:50:22.210Z,99505.19
2022-11-26T01:53:30.021Z,99506.78
2022-11-26T01:56:34.985Z,99507.88
2022-11-26T01:59:41.570Z,99504.28
2022-11-26T02:02:45.559Z,99514.56
2022-11-26T02:05:53.187Z,99508.97
2022-11-26T02:08:56.675Z,99518.13
2022-11-26T02:11:59.496Z,99514.34
2022-11-26T02:15:03.788Z,99526.13
2022-11-26T02:18:08.137Z,99527.00
2022-11-26T02:21:16.117Z,99526.28
2022-11-26T02:24:33.174Z,99528.38
2022-11-26T02:27:52.667Z,99535.38
2022-11-26T02:30:59.873Z,99529.72
2022-11-26T02:34:05.909Z,99538.41
2022-11-26T02:37:10.818Z,99543.16
2022-11-26T02:40:13.591Z,99538.19
2022-11-26T02:43:16.731Z,99541.34
2022-11-26T02:46:22.069Z,99553.16
2022-11-26T02:49:25.422Z,99555.78
2022-11-26T02:52:29.074Z,99563.50
2022-11-26T02:55:33.871Z,99563.19
2022-11-26T02:58:37.312Z,99562.31
2022-11-26T03:01:43.555Z,99558.09
2022-11-26T03:04:47.628Z,99570.16
2022-11-26T03:07:52.037Z,99567.19
2022-11-26T03:10:54.927Z,99565.09
2022-11-26T03:13:57.677Z,99567.75
2022-11-26T03:17:01.850Z,99568.59
2022-11-26T03:20:04.938Z,99571.28
2022-11-26T03:23:07.745Z,99573.47
2022-11-26T03:26:10.470Z,99563.78
2022-11-26T03:29:13.255Z,99577.13
2022-11-26T03:32:17.436Z,99573.34
2022-11-26T03:35:20.395Z,99571.13
2022-11-26T03:38:23.133Z,99569.84
2022-11-26T03:41:25.928Z,99572.03
2022-11-26T03:44:28.673Z,99573.88
2022-11-26T03:47:32.869Z,99583.28
2022-11-26T03:50:35.608Z,99578.44
2022-11-26T03:53:38.388Z,99590.53
2022-11-26T03:56:41.226Z,99587.19
2022-11-26T03:59:43.958Z,99586.88
2022-11-26T04:02:48.223Z,99595.88
2022-11-26T04:05:50.985Z,99591.38
2022-11-26T04:08:53.752Z,99605.13
2022-11-26T04:11:56.552Z,99605.97
2022-11-26T04:14:59.227Z,99610.31
2022-11-26T04:18:03.423Z,99610.16
2022-11-26T04:21:06.866Z,99605.50
2022-11-26T04:24:09.866Z,99607.19
2022-11-26T04:27:12.737Z,99618.16
2022-11-26T04:30:16.490Z,99623.66
2022-11-26T04:33:21.018Z,99626.97
2022-11-26T04:36:23.804Z,99624.06
2022-11-26T04:39:26.567Z,99616.88
2022-11-26T04:42:29.341Z,99624.97
2022-11-26T04:45:32.082Z,99625.44
2022-11-26T04:48:36.223Z,99640.22
2022-11-26T04:51:39.040Z,99639.75
2022-11-26T04:54:41.798Z,99642.91
2022-11-26T04:57:44.644Z,99648.53
2022-11-26T05:00:51.016Z,99643.94
2022-11-26T05:03:55.548Z,99649.16
2022-11-26T05:06:58.340Z,99653.41
2022-11-26T05:10:01.106Z,99658.06
2022-11-26T05:13:03.949Z,99651.16
2022-11-26T05:16:06.946Z,99650.72
2022-11-26T05:19:11.180Z,99659.31
2022-11-26T05:22:13.934Z,99656.50
2022-11-26T05:25:16.781Z,99652.31
2022-11-26T05:28:19.533Z,99650.06
2022-11-26T05:31:22.402Z,99659.06
2022-11-26T05:34:26.653Z,99661.06
2022-11-26T05:37:29.441Z,99665.84
2022-11-26T05:40:32.253Z,99671.47
2022-11-26T05:43:34.994Z,99671.78
2022-11-26T05:46:39.505Z,99672.06
2022-11-26T05:49:43.888Z,99679.81
2022-11-26T05:52:46.689Z,99690.34
2022-11-26T05:55:49.410Z,99689.94
2022-11-26T05:58:52.238Z,99688.53
2022-11-26T06:01:55.040Z,99682.66
2022-11-26T06:04:59.253Z,99691.78
2022-11-26T06:08:02.104Z,99697.41
2022-11-26T06:11:04.878Z,99692.34
2022-11-26T06:14:07.668Z,99690.69
2022-11-26T06:17:10.469Z,99692.91
2022-11-26T06:20:14.966Z,99690.25
2022-11-26T06:23:17.678Z,99692.69
2022-11-26T06:26:20.471Z,99694.38
2022-11-26T06:29:27.752Z,99703.47
2022-11-26T06:32:31.109Z,99714.28
2022-11-26T06:35:35.387Z,99711.63
2022-11-26T06:38:38.177Z,99720.75
2022-11-26T06:41:40.905Z,99715.69
2022-11-26T06:44:43.672Z,99718.38
2022-11-26T06:47:47.430Z,99723.84
2022-11-26T06:50:51.814Z,99724.94
2022-11-26T06:53:54.548Z,99719.88
2022-11-26T06:56:57.380Z,99722.41
2022-11-26T07:00:00.099Z,99725.50
2022-11-26T07:03:02.967Z,99730.84
2022-11-26T07:06:07.389Z,99736.31
2022-11-26T07:09:11.456Z,99740.69
2022-11-26T07:12:14.268Z,99742.50
2022-11-26T07:15:17.013Z,99746.41
2022-11-26T07:18:19.733Z,99736.88
2022-11-26T13:21:29.217Z,99863.44
2022-11-26T13:24:40.901Z,99859.34
2022-11-26T13:27:54.833Z,99855.81
2022-11-26T13:31:06.949Z,99863.16
2022-11-26T13:34:20.913Z,99859.81
2022-11-26T13:37:42.942Z,99869.06
2022-11-26T13:40:58.729Z,99869.44
2022-11-26T13:44:20.355Z,99876.19
2022-11-26T13:47:25.926Z,99882.22
2022-11-26T13:50:31.649Z,99882.84
2022-11-26T13:53:38.622Z,99872.78
2022-11-26T13:56:42.557Z,99889.50
2022-11-26T13:59:50.055Z,99883.78
2022-11-26T14:02:53.023Z,99883.41
2022-11-26T14:06:08.856Z,99884.25
2022-11-26T14:09:33.023Z,99873.63
2022-11-26T14:12:54.629Z,99890.16
2022-11-26T14:15:58.995Z,99891.75
2022-11-26T14:19:01.866Z,99891.59
2022-11-26T14:22:05.375Z,99901.03
2022-11-26T14:25:11.593Z,99903.69
2022-11-26T14:28:14.496Z,99905.38
2022-11-26T14:31:21.968Z,99899.09
2022-11-26T14:34:29.858Z,99902.25
2022-11-26T14:37:32.663Z,99903.25
2022-11-26T14:40:37.838Z,99901.28
2022-11-26T14:43:43.101Z,99907.47
2022-11-26T14:46:47.220Z,99912.78
2022-11-26T14:49:54.307Z,99909.00
2022-11-26T14:53:00.274Z,99907.19
2022-11-26T14:56:04.527Z,99905.28
2022-11-26T14:59:07.678Z,99912.16
2022-11-26T15:02:21.350Z,99910.59
2022-11-26T15:05:25.291Z,99918.19
2022-11-26T15:08:28.350Z,99914.66
2022-11-26T15:11:32.793Z,99918.06
2022-11-26T15:14:41.295Z,99920.72
2022-11-26T15:17:45.784Z,99911.16
2022-11-26T15:20:52.051Z,99913.59
2022-11-26T15:23:55.936Z,99913.19
2022-11-26T15:27:00.592Z,99916.84
2022-11-26T15:30:03.795Z,99921.94
2022-11-26T15:33:14.050Z,99925.28
2022-11-26T15:36:17.911Z,99925.53
2022-11-26T15:39:25.522Z,99929.91
2022-11-26T15:42:30.661Z,99929.91
2022-11-26T15:45:39.069Z,99926.97
2022-11-26T15:48:53.648Z,99930.84
2022-11-26T15:51:58.579Z,99922.34
2022-11-26T15:55:18.356Z,99931.41
2022-11-26T15:58:25.569Z,99928.94
2022-11-26T16:01:30.052Z,99930.72
2022-11-26T16:04:39.332Z,99919.94
2022-11-26T16:07:59.636Z,99936.44
2022-11-26T16:11:07.754Z,99931.03
2022-11-26T19:51:58.040Z,100007.03
2022-11-26T19:55:00.820Z,100003.38
2022-11-26T19:58:03.648Z,100009.19
2022-11-26T20:01:07.600Z,100006.47
2022-11-26T20:04:13.452Z,100001.50
2022-11-26T20:07:17.690Z,100014.06
2022-11-26T20:10:20.682Z,100008.75
2022-11-26T20:13:23.566Z,100012.97
2022-11-26T20:16:27.157Z,100021.09
2022-11-26T20:19:30.172Z,100024.09
2022-11-26T20:22:37.128Z,100020.56
2022-11-26T20:25:39.985Z,100014.72
2022-11-26T20:28:43.026Z,100031.06
2022-11-26T20:31:46.596Z,100016.88
2022-11-26T20:34:49.559Z,100039.72
2022-11-26T20:37:54.194Z,100035.47
2022-11-26T20:40:57.107Z,100035.66
2022-11-26T20:44:00.207Z,100037.09
2022-11-26T20:47:03.074Z,100047.50
2022-11-26T20:50:06.963Z,100035.63
2022-11-26T20:53:11.283Z,100046.53
2022-11-26T20:56:15.636Z,100047.31
2022-11-26T20:59:18.543Z,100043.50
2022-11-26T21:02:21.623Z,100048.16
2022-11-26T21:05:24.527Z,100045.69
2022-11-26T21:08:28.997Z,100057.94
2022-11-26T21:11:31.988Z,100055.38
2022-11-26T21:14:34.817Z,100057.00
2022-11-26T21:17:37.750Z,100050.19
2022-11-26T21:20:41.222Z,100057.72
2022-11-26T21:23:45.876Z,100058.03
2022-11-26T21:26:48.757Z,100052.47
2022-11-26T21:29:51.768Z,100052.69
2022-11-26T21:32:54.651Z,100046.00
2022-11-26T21:35:57.498Z,100053.34
2022-11-26T21:39:02.188Z,100048.28
2022-11-26T21:42:05.197Z,100046.34
2022-11-26T21:45:09.608Z,100039.03
2022-11-26T21:48:12.442Z,100045.81
2022-11-26T21:51:17.567Z,100040.63
2022-11-26T21:54:21.966Z,100043.47
2022-11-26T21:57:24.801Z,100043.19
2022-11-26T22:00:28.789Z,100048.41
2022-11-26T22:03:35.506Z,100040.50
2022-11-26T22:06:40.204Z,100046.97
2022-11-26T22:09:44.612Z,100039.09
2022-11-26T22:12:47.705Z,100039.94
2022-11-26T22:15:51.096Z,100043.91
2022-11-26T22:18:56.520Z,100046.81
2022-11-26T22:21:59.465Z,100051.06
2022-11-26T22:25:03.662Z,100051.16
2022-11-26T22:28:06.566Z,100054.69
2022-11-26T22:31:10.611Z,100053.44
2022-11-26T22:34:14.015Z,100045.16
2022-11-26T22:37:16.913Z,100049.13
2022-11-26T22:40:21.156Z,100045.28
2022-11-26T22:43:24.013Z,100048.38
2022-11-26T22:46:27.252Z,100050.91
2022-11-26T22:49:30.127Z,100051.91
2022-11-26T22:52:33.029Z,100054.28
2022-11-26T22:55:38.295Z,100047.44
2022-11-26T22:58:41.109Z,100050.78
2022-11-26T23:01:44.049Z,100048.56
2022-11-26T23:04:46.899Z,100045.88
2022-11-26T23:07:49.835Z,100036.06
2022-11-26T23:10:54.143Z,100043.63
2022-11-26T23:13:57.482Z,100050.69
2022-11-26T23:17:00.289Z,100046.06
2022-11-26T23:20:03.987Z,100043.25
2022-11-26T23:23:06.912Z,100039.72
2022-11-26T23:26:12.961Z,100038.88
2022-11-26T23:29:15.848Z,100038.38
2022-11-26T23:32:18.699Z,100044.53
2022-11-26T23:35:21.572Z,100048.88
2022-11-26T23:38:24.753Z,100044.00
2022-11-26T23:41:29.301Z,100055.66
2022-11-26T23:44:32.132Z,100056.50
2022-11-26T23:47:36.160Z,100060.84
2022-11-26T23:50:40.100Z,100062.25
2022-11-26T23:53:44.087Z,100073.06
2022-11-26T23:56:49.099Z,100063.97
2022-11-26T23:59:52.002Z,100069.88
